Ясно с небольшим количеством низких облаков и перистой облачностью
Пасмурно
Переменная облачность
Ясно с небольшим количеством низких облаков
Ясно с небольшим количеством низких облаков
Переменная облачность с отдельными перистыми облаками
Ясно с небольшим количеством низких облаков и отдельными перистыми облаками
(°C)
23°
23°
22°
22°
21°
21°
20°
20°
19°
19°
18°
18°
17°
17°
(°C)
19°
18°
18°
17°
17°
16°
15°
В
В
В
ЮВ
ЮЮВ
Ю
ЮЮЗ
(km/h)
24-47
22-43
19-41
16-34
14-27
12-23
11-20
(мм)
0
0
0
0
0
0
0
(%)
0
0
0
0
0
12
0

Высота солнцестояния

/ 17.1°
sun-icon
UV 9
05:19
19:37
Растущая луна (156°)
17:39
03:46

METAR для Мешхед (OIMM)

Время Условия Температура/
Точка росы
Ветер Видимость Погода Облачность Давление Изменить Необработанный
VFR 23°C / 12°C 90º 12kt 9700m - Few Clouds 4000ft
Scattered Clouds 18000ft
1018 - OIMM 211300Z 09012KT 9999 FEW040 SCT180 23/12 Q1018 A3007
VFR 23°C / 12°C 110º 12kt 9700m - Few Clouds 4000ft
Scattered Clouds 8000ft
1018 - OIMM 211230Z 11012KT 9999 FEW040 SCT080 23/12 Q1018 A3007
VFR 23°C / 12°C 120º 14kt 9700m - Scattered Clouds 8000ft 1018 - OIMM 211200Z 12014KT 9999 SCT080 23/12 Q1018 A3007
VFR 23°C / 12°C 110º 10kt 9700m - Few Clouds 8000ft
Scattered Clouds 17000ft
1018 - OIMM 211130Z 11010KT 9999 FEW080 SCT170 23/12 Q1018 A3006
VFR 23°C / 12°C 100º 16kt 9700m - Few Clouds 8000ft 1018 - OIMM 211100Z 10016KT 9999 FEW080 23/12 Q1018 A3007
VFR 23°C / 12°C 120º 12kt 9700m - Few Clouds 8000ft
Scattered Clouds 17000ft
1018 - OIMM 211030Z 12012KT 9999 FEW080 SCT170 23/12 Q1018 A3007
VFR 23°C / 12°C 130º 14kt 9700m - Clouds and Visibility OK 1018 - OIMM 211000Z 13014KT CAVOK 23/12 Q1018 A3007
VFR 22°C / 11°C 150º 12kt 9700m - Clouds and Visibility OK 1018 - OIMM 210930Z 15012KT CAVOK 22/11 Q1018 A3008
VFR 22°C / 12°C 120º 10kt 9700m - Clouds and Visibility OK 1019 - OIMM 210900Z 12010KT CAVOK 22/12 Q1019 A3010
VFR 22°C / 12°C 70º 4kt 9700m - Clouds and Visibility OK 1019 - OIMM 210830Z 07004KT CAVOK 22/12 Q1019 A3010
VFR 22°C / 12°C 110º 6kt 9700m - Clouds and Visibility OK 1019 - OIMM 210800Z 11006KT CAVOK 22/12 Q1019 A3011
VFR 21°C / 12°C 160º 6kt 9700m - Clouds and Visibility OK 1019 - OIMM 210730Z 16006KT CAVOK 21/12 Q1019 A3011
VFR 20°C / 12°C 110º 8kt 9700m - Clouds and Visibility OK 1020 - OIMM 210700Z 11008KT CAVOK 20/12 Q1020 A3013
VFR 20°C / 11°C 90º 8kt 9700m - Clouds and Visibility OK 1020 - OIMM 210630Z 09008KT CAVOK 20/11 Q1020 A3012
VFR 20°C / 11°C 100º 4kt 9700m - Clouds and Visibility OK 1020 - OIMM 210600Z 10004KT CAVOK 20/11 Q1020 A3012
VFR 20°C / 10°C 160º 6kt 9700m - Clouds and Visibility OK 1020 - OIMM 210530Z 16006KT CAVOK 20/10 Q1020 A3012
VFR 18°C / 10°C 10º 4kt 9700m - Clouds and Visibility OK 1020 - OIMM 210500Z 01004KT CAVOK 18/10 Q1020 A3013
VFR 18°C / 9°C variable 0kt 9700m - Clouds and Visibility OK 1020 No Significant change OIMM 210430Z 00000KT CAVOK 18/09 Q1020 A3013 NOSIG
VFR 17°C / 10°C variable 0kt 9700m - Clouds and Visibility OK 1020 - OIMM 210400Z 00000KT CAVOK 17/10 Q1020 A3013
VFR 16°C / 10°C variable 0kt 9700m - Clouds and Visibility OK 1020 - OIMM 210330Z 00000KT CAVOK 16/10 Q1020 A3012
VFR 16°C / 11°C variable 0kt 9700m - Clouds and Visibility OK 1019 - OIMM 210300Z 00000KT CAVOK 16/11 Q1019 A3012
VFR 15°C / 10°C variable 0kt 9700m - Clouds and Visibility OK 1019 - OIMM 210230Z 00000KT CAVOK 15/10 Q1019 A3012
VFR 13°C / 9°C variable 0kt 9700m - Clouds and Visibility OK 1019 - OIMM 210200Z 00000KT CAVOK 13/09 Q1019 A3011
VFR 12°C / 8°C variable 0kt 9700m - Clouds and Visibility OK 1019 - OIMM 210130Z 00000KT CAVOK 12/08 Q1019 A3011

VFR

23°C / 12°C

[Больше]
Ветер 90º 12kt
Видимость 9700m
Погода -
Облачность Few Clouds 4000ft
Scattered Clouds 18000ft
Давление 1018
Изменить -
Необработанный OIMM 211300Z 09012KT 9999 FEW040 SCT180 23/12 Q1018 A3007

VFR

23°C / 12°C

[Больше]
Ветер 110º 12kt
Видимость 9700m
Погода -
Облачность Few Clouds 4000ft
Scattered Clouds 8000ft
Давление 1018
Изменить -
Необработанный OIMM 211230Z 11012KT 9999 FEW040 SCT080 23/12 Q1018 A3007

VFR

23°C / 12°C

[Больше]
Ветер 120º 14kt
Видимость 9700m
Погода -
Облачность Scattered Clouds 8000ft
Давление 1018
Изменить -
Необработанный OIMM 211200Z 12014KT 9999 SCT080 23/12 Q1018 A3007

VFR

23°C / 12°C

[Больше]
Ветер 110º 10kt
Видимость 9700m
Погода -
Облачность Few Clouds 8000ft
Scattered Clouds 17000ft
Давление 1018
Изменить -
Необработанный OIMM 211130Z 11010KT 9999 FEW080 SCT170 23/12 Q1018 A3006

VFR

23°C / 12°C

[Больше]
Ветер 100º 16kt
Видимость 9700m
Погода -
Облачность Few Clouds 8000ft
Давление 1018
Изменить -
Необработанный OIMM 211100Z 10016KT 9999 FEW080 23/12 Q1018 A3007

VFR

23°C / 12°C

[Больше]
Ветер 120º 12kt
Видимость 9700m
Погода -
Облачность Few Clouds 8000ft
Scattered Clouds 17000ft
Давление 1018
Изменить -
Необработанный OIMM 211030Z 12012KT 9999 FEW080 SCT170 23/12 Q1018 A3007

VFR

23°C / 12°C

[Больше]
Ветер 130º 14kt
Видимость 9700m
Погода -
Облачность Clouds and Visibility OK
Давление 1018
Изменить -
Необработанный OIMM 211000Z 13014KT CAVOK 23/12 Q1018 A3007

VFR

22°C / 11°C

[Больше]
Ветер 150º 12kt
Видимость 9700m
Погода -
Облачность Clouds and Visibility OK
Давление 1018
Изменить -
Необработанный OIMM 210930Z 15012KT CAVOK 22/11 Q1018 A3008

VFR

22°C / 12°C

[Больше]
Ветер 120º 10kt
Видимость 9700m
Погода -
Облачность Clouds and Visibility OK
Давление 1019
Изменить -
Необработанный OIMM 210900Z 12010KT CAVOK 22/12 Q1019 A3010

VFR

22°C / 12°C

[Больше]
Ветер 70º 4kt
Видимость 9700m
Погода -
Облачность Clouds and Visibility OK
Давление 1019
Изменить -
Необработанный OIMM 210830Z 07004KT CAVOK 22/12 Q1019 A3010

VFR

22°C / 12°C

[Больше]
Ветер 110º 6kt
Видимость 9700m
Погода -
Облачность Clouds and Visibility OK
Давление 1019
Изменить -
Необработанный OIMM 210800Z 11006KT CAVOK 22/12 Q1019 A3011

VFR

21°C / 12°C

[Больше]
Ветер 160º 6kt
Видимость 9700m
Погода -
Облачность Clouds and Visibility OK
Давление 1019
Изменить -
Необработанный OIMM 210730Z 16006KT CAVOK 21/12 Q1019 A3011

VFR

20°C / 12°C

[Больше]
Ветер 110º 8kt
Видимость 9700m
Погода -
Облачность Clouds and Visibility OK
Давление 1020
Изменить -
Необработанный OIMM 210700Z 11008KT CAVOK 20/12 Q1020 A3013

VFR

20°C / 11°C

[Больше]
Ветер 90º 8kt
Видимость 9700m
Погода -
Облачность Clouds and Visibility OK
Давление 1020
Изменить -
Необработанный OIMM 210630Z 09008KT CAVOK 20/11 Q1020 A3012

VFR

20°C / 11°C

[Больше]
Ветер 100º 4kt
Видимость 9700m
Погода -
Облачность Clouds and Visibility OK
Давление 1020
Изменить -
Необработанный OIMM 210600Z 10004KT CAVOK 20/11 Q1020 A3012

VFR

20°C / 10°C

[Больше]
Ветер 160º 6kt
Видимость 9700m
Погода -
Облачность Clouds and Visibility OK
Давление 1020
Изменить -
Необработанный OIMM 210530Z 16006KT CAVOK 20/10 Q1020 A3012

VFR

18°C / 10°C

[Больше]
Ветер 10º 4kt
Видимость 9700m
Погода -
Облачность Clouds and Visibility OK
Давление 1020
Изменить -
Необработанный OIMM 210500Z 01004KT CAVOK 18/10 Q1020 A3013

VFR

18°C / 9°C

[Больше]
Ветер variable 0kt
Видимость 9700m
Погода -
Облачность Clouds and Visibility OK
Давление 1020
Изменить No Significant change
Необработанный OIMM 210430Z 00000KT CAVOK 18/09 Q1020 A3013 NOSIG

VFR

17°C / 10°C

[Больше]
Ветер variable 0kt
Видимость 9700m
Погода -
Облачность Clouds and Visibility OK
Давление 1020
Изменить -
Необработанный OIMM 210400Z 00000KT CAVOK 17/10 Q1020 A3013

VFR

16°C / 10°C

[Больше]
Ветер variable 0kt
Видимость 9700m
Погода -
Облачность Clouds and Visibility OK
Давление 1020
Изменить -
Необработанный OIMM 210330Z 00000KT CAVOK 16/10 Q1020 A3012

VFR

16°C / 11°C

[Больше]
Ветер variable 0kt
Видимость 9700m
Погода -
Облачность Clouds and Visibility OK
Давление 1019
Изменить -
Необработанный OIMM 210300Z 00000KT CAVOK 16/11 Q1019 A3012

VFR

15°C / 10°C

[Больше]
Ветер variable 0kt
Видимость 9700m
Погода -
Облачность Clouds and Visibility OK
Давление 1019
Изменить -
Необработанный OIMM 210230Z 00000KT CAVOK 15/10 Q1019 A3012

VFR

13°C / 9°C

[Больше]
Ветер variable 0kt
Видимость 9700m
Погода -
Облачность Clouds and Visibility OK
Давление 1019
Изменить -
Необработанный OIMM 210200Z 00000KT CAVOK 13/09 Q1019 A3011

VFR

12°C / 8°C

[Больше]
Ветер variable 0kt
Видимость 9700m
Погода -
Облачность Clouds and Visibility OK
Давление 1019
Изменить -
Необработанный OIMM 210130Z 00000KT CAVOK 12/08 Q1019 A3011

TAF для Мешхед (OIMM)

From till


From till Wind 100º 8kt. Visibility 7000m. Few Clouds 4000ft. Scattered Clouds 8000ft.
Temporarly from till Wind 140º 18kt. Few Clouds 3500ft. Scattered Clouds 4000ft. Broken Clouds 10000ft.
Temporarly from till Few Clouds 3500ft. Scattered Clouds 4000ft. Broken Clouds 10000ft.
With 30% probability, from till Visibility 5000m. Thunderstorm Rain .
Temporarly from till Wind 140º 18kt. Few Clouds 3500ft. Scattered Clouds 4000ft. Broken Clouds 10000ft.

Необработанный: TAF OIMM 211111Z 2112/2218 10008KT 7000 FEW040 SCT080 TEMPO 2112/2115 14018KT FEW035CB SCT040 BKN100 TEMPO 2121/2203 FEW035CB SCT040 BKN100 PROB30 5000 TS RA TEMPO 2208/2215 14018KT FEW035CB SCT040 BKN100

Радарный и сверхкраткосрочный прогноз осадков для Мешхед

Морось
Незначительные
Умеренные
Сильные
Очень Сильные
Град

Индикатор местности находится на Мешхед. Эта анимация показывает радар осадков для выбранного диапазона времени, а также 2h прогноз. Оранжевые кресты обозначают молнию. Данные предоставлены nowcast.de (доступны в США, Европе, Австралии). Морось или небольшой снег могут быть невидимы для радара. Интенсивность осадков имеет цветовую кодировку - от бирюзового до красного.

Текущие спутниковые изображения и снимки дождя для Мешхед, Иран

Указатель местности находится на Мешхед. [Больше]

Спутниковое изображение в реальном времени сочетает в себе видимый свет в дневное время с инфракрасным излучением в ночное время. Ночью изображение получается не темным, так как инфракрасное излучение может обнаружить разницу температур. К сожалению, низкие облака и туман трудно отличить от температуры у поверхности земли и поэтому могут быть почти незаметны ночью. Спутниковые снимки Meteosat для Европы обновляются каждые 5 минут в режиме реального времени.Снимки GOES-16/GOES-17 (Северная и Южная Америка) и Химавари (Азия) обновляются каждые 10 минут.

Осадки оцениваются по данным радаров и спутников. Оценка осадков со спутников менее точна ночью, чем днем.

© 2024 meteoblue, NOAA Satellites GOES-16 and EUMETSAT. Данные о молниях предоставляются со стороны nowcast.

Обратно к последним данным
×
Привет,
похоже, что вы используете блокировщик рекламы.

Реклама необходима для поддержания нашего бесплатного сайта с уникальной детализацией и точностью.

Пожалуйста, внесите www.meteoblue.com в белый список вашего блокировщика рекламы или рассмотрите возможность покупки одного из наших продуктов:

У вас уже есть подписка?
Тогда, пожалуйста, логин.